AirNav   Air Wisconsin pilot careers
 
 890 users online  

16X Propwash Airport
Justin, Texas, USA

GOING TO JUSTIN?


FAA INFORMATION EFFECTIVE 09 NOVEMBER 2017

Location

FAA Identifier: 16X
Lat/Long: 33-04-50.2000N / 097-21-30.3000W
33-04.836667N / 097-21.505000W
33.0806111 / -97.3584167
(estimated)
Elevation: 804 ft. / 245 m (estimated)
Variation: 07E (1985)
From city: 3 miles W of JUSTIN, TX
Time zone: UTC -6 (UTC -5 during Daylight Saving Time)
Zip code: 76247

Airport Operations

Airport use: Open to the public
Activation date: 08/1976
Control tower: no
ARTCC: FORT WORTH CENTER
FSS: FORT WORTH FLIGHT SERVICE STATION
NOTAMs facility: FTW (NOTAM-D service available)
Attendance: UNATNDD
Wind indicator: yes
Segmented circle: no
Lights: ACTVT LIRL RY 17/35 - CTAF.
Beacon: white-green (lighted land airport)
ACTVT ROTG BCN - CTAF.

Airport Communications

CTAF: 122.9
WX ASOS at AFW (6 nm S): PHONE 817-491-6188
WX ASOS at DTO (11 nm NE): 119.325 (940-383-8457)
WX AWOS-3 at LUD (15 nm NW): 118.225 (940-627-2365)
WX ASOS at FTW (16 nm S): PHONE 817-740-3346
WX ASOS at DFW (20 nm SE): PHONE 972-615-2608

Nearby radio navigation aids

VOR radial/distance  VOR name  Freq  Var
FUZr316/14.6RANGER VORTAC115.7006E
TTTr302/20.4MAVERICK VOR/DME113.1006E
CVEr291/25.6COWBOY VOR/DME116.2006E
UKWr134/35.8BOWIE VORTAC112.4006E
MQPr048/38.6MILLSAP VORTAC117.7009E

 
NDB name  Hdg/Dist  Freq  Var  ID
MUFIN356/11.336508EFT ..-. -
PINCK210/14.625704EDT -.. -
GRINDSTONE MOUNTAIN140/37.735607EGMZ --. -- --..

Airport Services

Runway Information

Runway 17/35

Dimensions: 3000 x 60 ft. / 914 x 18 m
Surface: asphalt, in fair condition
Runway edge lights: low intensity
Runway edge markings: NSTD DSPLD THLD, MARKED WITH ARROWS, NOT ARROW HEADS AS PER AC 150/5340-1L.
RUNWAY 17  RUNWAY 35
Latitude: 33-05.083920N33-04.589110N
Longitude: 097-21.503135W097-21.506112W
Elevation: 804.0 ft.800.0 ft.
Traffic pattern: rightleft
Runway heading: 173 magnetic, 180 true353 magnetic, 000 true
Markings: basic, in fair conditionbasic, in fair condition
Obstructions: 35 ft. tree, 300 ft. from runway, 125 ft. left of centerline, 2:1 slope to clear
4 FT FENCE 60 FT FM RY END 40-125 FT L AND R OF CNTRLN.
21 ft. tree, 225 ft. from runway, 125 ft. right of centerline, 1:1 slope to clear
+5 FT FENCE 70 FT FM RY END ACROSS APCH; +15 FT ROAD 80 FT FM RY END ACROSS APCH.

Airport Ownership and Management from official FAA records

Ownership: Privately-owned
Owner: PROPWASH OWNERS ASSOCIATION INC
15687 CESSNA ROAD
JUSTIN, TX 76247
Phone 940-648-1720
Manager: TOM SILVA
15663 CESSNA ROAD
JUSTIN, TX 76247
Phone 940-648-0862

Airport Operational Statistics

Aircraft based on the field: 109
Single engine airplanes: 94
Multi engine airplanes: 5
Helicopters: 4
Ultralights: 6
    
Aircraft operations: avg 102/week *
94% local general aviation
6% transient general aviation
* for 12-month period ending 31 December 2015

Additional Remarks

FOR CD CTC REGIONAL APCH AT 972-615-2799.

Instrument Procedures

There are no published instrument procedures at 16X.

Some nearby airports with instrument procedures:

KAFW - Fort Worth Alliance Airport (6 nm S)
4T2 - Kenneth Copeland Airport (9 nm SW)
KDTO - Denton Enterprise Airport (11 nm NE)
KLUD - Decatur Municipal Airport (15 nm NW)
KFTW - Fort Worth Meacham International Airport (16 nm S)
KNFW - Fort Worth Naval Air Station JRB (Carswell Field) Airport (19 nm S)
KDFW - Dallas-Fort Worth International Airport (20 nm SE)
 
Loc | Ops | Rwys | IFR | FBO | Links
Com | Nav | Svcs | Stats | Notes

Lake Texoma Jet Center
AirBoss

 
Area around 16X (Propwash Airport)
 
Road maps at: MapQuest Bing Google
 
Aerial photo
WARNING: Photo may not be current or correct
Aerial photo of 16X (Propwash Airport)
Photo taken 21-Nov-2005

Do you have a better or more recent aerial photo of Propwash Airport that you would like to share? If so, please send us your photo.

 
Sectional chart

 
Airport distance calculator
Flying to Propwash Airport? Find the distance to fly.

From to 16X

Sunrise and sunset
Times for 18-Nov-2017
 Local
(UTC-6)
 Zulu
(UTC)
Morning civil twilight06:3812:38
Sunrise07:0413:04
Sunset17:2523:25
Evening civil twilight17:5223:52

Current date and time
Zulu (UTC)  19-Nov-2017 00:28:15
Local (UTC-6)  18-Nov-2017 18:28:15
 
METAR
KAFW 
7nm S 
182353Z 36016G25KT 10SM SCT200 BKN300 13/02 A3019 RMK AO2 PK WND 36026/2322 SLP218 T01330017 10206 20133 51040
KDTO 
11nm NE 
182353Z 35009KT 10SM CLR 12/02 A3020 RMK AO2 SLP222 T01170022 10206 20117 53039
KFTW 
15nm S 
182353Z 35016G27KT 10SM CLR 14/02 A3018 RMK AO2 PK WND 36028/2332 SLP217 T01440022 10217 20144 53039
KLUD 
15nm NW 
118.22 940-927-2365
190015Z AUTO 35009KT 10SM CLR 11/01 A3021 RMK AO2 T01130007
KNFW 
19nm S 
182352Z AUTO 35015KT 10SM CLR 14/02 A3020 RMK AO2 PK WND 01026/2324 SLP208 T01440017 10211 20144 53039 $
TAF
KAFW 
7nm S 
182107Z 1821/1918 33022G34KT P6SM SCT050 BKN300 FM182300 35018KT P6SM FEW050 BKN300 FM190200 35008KT P6SM SCT300
KFTW 
15nm S 
182107Z 1821/1918 33022G34KT P6SM SCT050 BKN300 FM182300 35018KT P6SM FEW050 BKN300 FM190200 35008KT P6SM SCT300
KNFW 
19nm S 
1723/1823 19017G28KT 9999 SCT250 QNH2968INS FM181000 22016G23KT 9999 BKN250 QNH2974INS FM181500 32023G34KT 9999 BKN250 QNH2980INS T17/1812Z T20/1818Z FN20059
NOTAMs
Click for the latest NOTAMs
NOTAMs are issued by the DoD/FAA and will open in a separate window not controlled by AirNav.

 

 
 

Would you like to see your business listed on this page?

 If your business provides an interesting product or service to pilots, flight crews, aircraft, or users of the Propwash Airport, you should consider listing it here.  To start the listing process, click on the button below
 
Add a business
 

Other Pages about Propwash Airport

Update a link
 
Copyright © AirNav, LLC. All rights reserved. Privacy Policy  Contact